Time;durP1;ratioP1;P1;durP2;ratioP2;P2;SDS_P1;SDS_P2;PMS_P1;PMS_P2;Temp;Humidity;BMP_temperature;BMP_pressure;BME280_temperature;BME280_humidity;BME280_pressure;Samples;Min_cycle;Max_cycle;Signal;HPM_P1;HPM_P2
2021/01/07 00:00:14;;;;;;;;;75.00;60.00;;;;;9.33;49.89;98013.28;6156775;28;127260;-59
2021/01/07 00:03:16;;;;;;;;;75.00;61.20;;;;;9.41;50.07;98035.25;6140636;28;126768;-59
2021/01/07 00:06:17;;;;;;;;;77.00;63.80;;;;;9.35;49.88;98020.03;6155589;28;125508;-59
2021/01/07 00:09:19;;;;;;;;;75.00;61.75;;;;;9.22;50.31;98022.97;6155278;28;126722;-59
2021/01/07 00:12:20;;;;;;;;;75.00;61.00;;;;;9.23;49.97;98031.88;6157280;28;126116;-59
2021/01/07 00:15:21;;;;;;;;;76.80;61.20;;;;;9.21;50.22;98028.59;6153813;28;126342;-59
2021/01/07 00:18:23;;;;;;;;;77.40;61.80;;;;;9.23;50.34;98034.56;6143238;28;124714;-59
2021/01/07 00:21:24;;;;;;;;;79.00;63.60;;;;;9.25;50.26;98033.25;6160902;28;125593;-59
2021/01/07 00:24:26;;;;;;;;;77.40;65.40;;;;;9.29;50.13;98026.34;6160765;28;125458;-59
2021/01/07 00:27:27;;;;;;;;;75.00;60.67;;;;;9.36;50.13;98023.56;6160632;28;126712;-59
2021/01/07 00:30:29;;;;;;;;;75.00;60.40;;;;;9.39;50.08;98033.84;6160520;28;125129;-59
2021/01/07 00:33:30;;;;;;;;;70.50;56.50;;;;;9.42;50.19;98044.97;6160697;28;126385;-59
2021/01/07 00:36:32;;;;;;;;;72.40;56.80;;;;;9.49;50.20;98042.13;6160870;28;126714;-59
2021/01/07 00:39:33;;;;;;;;;72.20;54.20;;;;;9.51;50.26;98040.88;6160374;28;127485;-59
2021/01/07 00:42:34;;;;;;;;;68.00;52.20;;;;;9.47;50.17;98038.88;6160775;28;127142;-59
2021/01/07 00:45:36;;;;;;;;;71.00;51.00;;;;;9.43;49.90;98019.69;6160637;28;125332;-59
2021/01/07 00:48:38;;;;;;;;;64.00;49.60;;;;;9.66;50.00;98058.41;6143899;28;126541;-59
2021/01/07 00:51:39;;;;;;;;;65.00;50.00;;;;;9.64;50.02;98047.03;6126447;28;125153;-59
2021/01/07 00:54:41;;;;;;;;;62.00;48.00;;;;;9.71;49.97;98056.63;6153984;28;126199;-59
2021/01/07 00:57:46;;;;;;;;;67.00;52.00;;;;;9.69;49.54;98049.84;6156845;28;125557;-59
2021/01/07 01:00:48;;;;;;;;;66.00;51.80;;;;;9.65;49.38;98054.88;6159602;28;125307;-59
2021/01/07 01:03:50;;;;;;;;;69.00;53.00;;;;;9.62;49.52;98051.84;6159722;28;126417;-59
2021/01/07 01:06:51;;;;;;;;;68.00;53.00;;;;;9.54;49.40;98053.84;6160040;28;126403;-59
2021/01/07 01:09:53;;;;;;;;;72.25;54.00;;;;;9.49;49.63;98051.03;6160263;28;126534;-59
2021/01/07 01:12:55;;;;;;;;;72.40;54.60;;;;;9.30;49.95;98022.63;6160446;28;126124;-59
2021/01/07 01:15:56;;;;;;;;;67.00;53.00;;;;;9.47;50.01;98060.41;6152434;28;125637;-59
2021/01/07 01:18:58;;;;;;;;;73.00;56.20;;;;;9.49;49.83;98053.72;6150670;28;124794;-59
2021/01/07 01:21:59;;;;;;;;;70.00;53.60;;;;;9.53;49.92;98057.56;6160165;28;126550;-59
2021/01/07 01:25:08;;;;;;;;;72.00;56.00;;;;;9.48;49.92;98044.00;6160220;28;126233;-59
2021/01/07 01:28:09;;;;;;;;;72.50;57.00;;;;;8.94;49.98;97956.44;6144069;28;124755;-59
2021/01/07 01:31:13;;;;;;;;;72.75;57.00;;;;;9.62;49.73;98046.47;6147881;28;125599;-59
2021/01/07 01:34:19;;;;;;;;;74.00;60.80;;;;;9.60;49.62;98046.69;6160190;28;123659;-59
2021/01/07 01:37:20;;;;;;;;;76.80;58.60;;;;;9.11;49.43;97988.84;6159884;28;126198;-59
2021/01/07 01:40:22;;;;;;;;;77.60;62.20;;;;;9.55;49.59;98052.78;6159245;28;126590;-59
2021/01/07 01:43:24;;;;;;;;;78.00;64.80;;;;;9.57;49.57;98048.00;6159854;28;126260;-59
2021/01/07 01:46:25;;;;;;;;;77.00;63.33;;;;;9.50;49.57;98044.59;6149183;28;125641;-59
2021/01/07 01:49:27;;;;;;;;;78.00;63.60;;;;;9.39;49.79;98044.59;6154290;28;126755;-59
2021/01/07 01:52:30;;;;;;;;;75.00;59.00;;;;;9.29;50.04;98037.13;6159316;28;126538;-59
2021/01/07 01:55:32;;;;;;;;;79.00;65.40;;;;;9.30;50.23;98035.25;6159535;28;124812;-59
2021/01/07 01:58:35;;;;;;;;;78.20;64.60;;;;;9.30;50.17;98049.50;6159985;28;125375;-59
2021/01/07 02:01:36;;;;;;;;;76.60;62.40;;;;;9.32;49.97;98047.41;6156830;28;124638;-59
2021/01/07 02:04:38;;;;;;;;;74.60;58.20;;;;;9.33;49.82;98030.25;6158786;28;124619;-59
2021/01/07 02:07:43;;;;;;;;;74.75;60.50;;;;;9.36;49.74;98027.06;6121195;28;125503;-59
2021/01/07 02:10:46;;;;;;;;;79.20;66.40;;;;;9.28;49.51;98019.38;6148953;28;124771;-59
2021/01/07 02:13:48;;;;;;;;;78.80;67.40;;;;;9.43;49.77;98027.75;6159060;28;125243;-59
2021/01/07 02:16:51;;;;;;;;;78.20;67.40;;;;;9.46;49.64;98029.16;6159616;28;126641;-59
2021/01/07 02:19:58;;;;;;;;;78.20;69.20;;;;;9.16;49.53;97983.56;6158958;28;125574;-59
2021/01/07 02:22:59;;;;;;;;;82.60;71.00;;;;;9.43;49.52;98033.13;6158964;28;124755;-59
2021/01/07 02:26:02;;;;;;;;;79.75;66.75;;;;;9.39;49.72;98028.44;6159172;28;128039;-59
2021/01/07 02:29:03;;;;;;;;;81.50;70.50;;;;;9.37;49.71;98033.28;6158911;28;126197;-59
2021/01/07 02:32:05;;;;;;;;;86.50;73.00;;;;;9.30;49.96;98029.88;6142218;28;125291;-59
2021/01/07 02:35:09;;;;;;;;;89.00;75.40;;;;;9.24;50.11;98033.47;6158400;28;125223;-59
2021/01/07 02:38:10;;;;;;;;;85.20;72.00;;;;;9.12;50.49;98028.94;6143460;28;126007;-59
2021/01/07 02:41:12;;;;;;;;;85.20;73.00;;;;;9.11;50.65;98032.69;6158219;28;126157;-59
2021/01/07 02:44:13;;;;;;;;;80.40;69.80;;;;;9.12;50.72;98038.88;6158462;28;124359;-59
2021/01/07 02:47:15;;;;;;;;;78.20;67.00;;;;;9.11;50.78;98039.91;6158107;28;125433;-59
2021/01/07 02:50:17;;;;;;;;;82.50;69.50;;;;;9.13;50.88;98041.34;6159117;28;126350;-59
2021/01/07 02:53:18;;;;;;;;;79.00;66.20;;;;;8.92;50.90;98003.44;6158274;28;125535;-59
2021/01/07 02:56:20;;;;;;;;;79.60;67.20;;;;;9.20;50.73;98037.69;6158612;28;127463;-59
2021/01/07 02:59:21;;;;;;;;;78.25;63.00;;;;;9.23;50.45;98034.56;6158237;28;124804;-59
2021/01/07 03:02:23;;;;;;;;;83.40;71.00;;;;;9.07;50.59;98030.69;6158382;28;97358;-59
2021/01/07 03:05:24;;;;;;;;;78.25;64.25;;;;;9.21;50.68;98034.78;6144706;28;126203;-59
2021/01/07 03:08:26;;;;;;;;;76.60;61.00;;;;;9.24;50.57;98038.88;6157623;28;126848;-59
2021/01/07 03:11:27;;;;;;;;;72.00;58.00;;;;;9.21;50.74;98023.22;6157737;28;126631;-59
2021/01/07 03:14:29;;;;;;;;;77.20;63.00;;;;;8.96;50.80;98002.75;6157450;28;125125;-59
2021/01/07 03:17:30;;;;;;;;;76.25;62.50;;;;;9.07;50.78;98018.06;6152230;28;126913;-59
2021/01/07 03:20:32;;;;;;;;;75.00;61.00;;;;;9.16;50.68;98033.84;6158031;28;125227;-59
2021/01/07 03:23:34;;;;;;;;;75.00;62.00;;;;;8.93;50.86;98013.97;6157883;28;124846;-59
2021/01/07 03:26:36;;;;;;;;;75.00;59.40;;;;;9.17;50.84;98033.63;6158177;28;125218;-59
2021/01/07 03:29:37;;;;;;;;;78.80;65.00;;;;;9.10;50.95;98036.41;6157801;28;124870;-59
2021/01/07 03:32:39;;;;;;;;;74.00;55.80;;;;;9.14;50.99;98036.75;6172654;28;125573;-58
2021/01/07 03:35:40;;;;;;;;;78.00;60.00;;;;;9.16;50.76;98029.28;6157315;28;125393;-58
2021/01/07 03:38:42;;;;;;;;;75.50;59.50;;;;;9.17;50.79;98040.88;6158163;28;126786;-58
2021/01/07 03:41:44;;;;;;;;;71.00;54.25;;;;;9.14;50.79;98039.44;6157424;28;127401;-58
2021/01/07 03:44:55;;;;;;;;;74.50;58.50;;;;;9.17;50.80;98035.47;6157433;28;126931;-58
2021/01/07 03:47:57;;;;;;;;;69.00;52.60;;;;;9.17;50.87;98035.47;6158021;28;125781;-59
2021/01/07 03:50:58;;;;;;;;;71.20;56.80;;;;;9.16;50.87;98047.28;6157658;28;124808;-59
2021/01/07 03:54:00;;;;;;;;;75.00;57.00;;;;;9.14;50.86;98036.75;6157673;28;127340;-59
2021/01/07 03:57:02;;;;;;;;;71.00;53.00;;;;;9.19;50.88;98039.56;6161915;28;127025;-59
2021/01/07 04:00:06;;;;;;;;;71.40;53.20;;;;;9.27;50.77;98041.09;6161529;28;125521;-59
2021/01/07 04:03:08;;;;;;;;;73.20;57.60;;;;;9.10;50.65;98014.06;6157083;28;125915;-59
2021/01/07 04:06:10;;;;;;;;;70.33;53.00;;;;;9.35;50.57;98043.44;6161518;28;126702;-59
2021/01/07 04:09:11;;;;;;;;;73.00;58.00;;;;;9.37;50.61;98034.09;6161382;28;124597;-59
2021/01/07 04:12:13;;;;;;;;;74.00;57.00;;;;;9.43;50.37;98040.41;6161242;28;125419;-59
2021/01/07 04:15:33;;;;;;;;;70.40;55.20;;;;;9.36;50.41;98043.22;6161244;28;125580;-59
2021/01/07 04:18:35;;;;;;;;;73.80;58.60;;;;;9.38;50.40;98046.47;6160877;28;124872;-59
2021/01/07 04:21:45;;;;;;;;;69.60;51.60;;;;;9.40;50.50;98041.69;6161173;28;125420;-59
2021/01/07 04:24:47;;;;;;;;;72.60;55.00;;;;;9.39;50.34;98028.44;6161358;28;124858;-59
2021/01/07 04:27:49;;;;;;;;;71.80;54.00;;;;;9.41;50.22;98037.13;6160641;28;124953;-59
2021/01/07 04:30:51;;;;;;;;;76.00;58.25;;;;;9.50;50.20;98051.84;6160593;28;127210;-57
2021/01/07 04:33:52;;;;;;;;;68.50;53.00;;;;;9.51;50.06;98043.56;6144437;28;127815;-59
2021/01/07 04:36:53;;;;;;;;;72.20;56.20;;;;;9.40;50.15;98030.91;6152270;28;124432;-58
2021/01/07 04:39:55;;;;;;;;;71.40;55.20;;;;;9.46;50.15;98042.63;6160580;28;125031;-58
2021/01/07 04:42:58;;;;;;;;;72.00;56.60;;;;;9.39;50.20;98034.66;6160116;28;126565;-58
2021/01/07 04:45:59;;;;;;;;;71.20;53.40;;;;;9.51;50.12;98046.25;6160745;28;125201;-58
2021/01/07 04:49:01;;;;;;;;;63.50;50.00;;;;;8.90;49.99;97951.78;6160613;28;125581;-59
2021/01/07 04:52:03;;;;;;;;;72.20;58.00;;;;;9.51;50.05;98048.13;6160258;28;124759;-58
2021/01/07 04:55:05;;;;;;;;;70.00;55.75;;;;;9.51;50.19;98045.41;6150375;28;126665;-58
2021/01/07 04:58:06;;;;;;;;;73.40;57.00;;;;;9.40;50.18;98049.75;6159924;28;127692;-58
2021/01/07 05:01:08;;;;;;;;;72.00;57.00;;;;;9.42;50.26;98049.53;6153663;28;126578;-58
2021/01/07 05:04:10;;;;;;;;;71.25;53.25;;;;;9.22;50.29;98016.78;6160524;28;127565;-59
2021/01/07 05:07:11;;;;;;;;;70.40;53.00;;;;;9.27;50.66;98041.94;6159175;28;126121;-58
2021/01/07 05:10:13;;;;;;;;;70.40;52.00;;;;;9.30;50.69;98040.63;6159881;28;125458;-59
2021/01/07 05:13:15;;;;;;;;;67.00;52.00;;;;;9.32;50.40;98039.34;6159693;28;126795;-59
2021/01/07 05:16:20;;;;;;;;;66.00;51.00;;;;;9.40;50.24;98047.06;6160063;28;126087;-59
2021/01/07 05:19:22;;;;;;;;;68.75;51.00;;;;;9.30;50.20;98009.16;6154447;28;126211;-59
2021/01/07 05:22:34;;;;;;;;;66.40;51.00;;;;;9.33;50.16;98019.47;6159970;28;125369;-59
2021/01/07 05:25:42;;;;;;;;;62.00;49.00;;;;;9.41;50.06;98043.31;6159436;28;125318;-59
2021/01/07 05:28:46;;;;;;;;;67.20;52.00;;;;;9.38;50.24;98026.84;6159402;28;124913;-58
2021/01/07 05:31:52;;;;;;;;;68.00;52.50;;;;;9.36;50.17;98034.31;6160096;28;125137;-59
2021/01/07 05:34:53;;;;;;;;;72.00;54.75;;;;;9.22;50.18;98014.91;6159701;28;124547;-59
2021/01/07 05:37:58;;;;;;;;;71.60;53.00;;;;;9.32;51.01;98039.34;6159969;28;126647;-59
2021/01/07 05:40:59;;;;;;;;;73.00;55.00;;;;;9.32;50.55;98041.22;6159773;28;127411;-59
2021/01/07 05:44:06;;;;;;;;;70.50;54.50;;;;;9.36;50.45;98047.75;6159798;28;126709;-59
2021/01/07 05:47:08;;;;;;;;;73.00;57.50;;;;;9.41;50.50;98055.94;6159497;28;126272;-59
2021/01/07 05:50:13;;;;;;;;;74.20;57.20;;;;;9.43;50.49;98046.59;6159323;28;126880;-59
2021/01/07 05:53:18;;;;;;;;;72.20;57.00;;;;;9.23;50.58;98021.13;6158775;28;124373;-59
2021/01/07 05:56:21;;;;;;;;;72.60;59.60;;;;;9.42;50.53;98057.59;6159132;28;126478;-59
2021/01/07 05:59:22;;;;;;;;;70.80;55.20;;;;;9.39;50.68;98053.47;6158875;28;124255;-59
2021/01/07 06:02:24;;;;;;;;;74.60;59.00;;;;;9.41;50.56;98054.09;6157254;28;126961;-59
2021/01/07 06:05:26;;;;;;;;;73.00;57.40;;;;;9.39;50.60;98066.13;6155372;28;126835;-59
2021/01/07 06:08:29;;;;;;;;;75.20;59.80;;;;;9.41;50.69;98059.47;6145666;28;124974;-59
2021/01/07 06:11:32;;;;;;;;;73.20;58.60;;;;;9.36;50.57;98056.66;6161576;28;125216;-59
2021/01/07 06:14:34;;;;;;;;;75.75;59.50;;;;;9.41;50.70;98064.03;6159117;28;125588;-59
2021/01/07 06:17:37;;;;;;;;;72.80;55.80;;;;;9.09;50.69;98020.50;6158528;28;126756;-59
2021/01/07 06:20:39;;;;;;;;;70.00;53.00;;;;;9.41;50.49;98064.84;6158835;28;126501;-59
2021/01/07 06:23:45;;;;;;;;;72.00;55.00;;;;;9.32;50.51;98085.09;6158565;28;125392;-59
2021/01/07 06:26:46;;;;;;;;;70.60;54.60;;;;;9.10;50.72;98022.97;6140806;28;125606;-59
2021/01/07 06:29:49;;;;;;;;;69.60;54.00;;;;;9.40;50.70;98065.06;6155285;28;127541;-59
2021/01/07 06:33:06;;;;;;;;;71.20;53.00;;;;;9.44;50.68;98071.63;6157598;28;125382;-60
2021/01/07 06:36:09;;;;;;;;;71.00;53.00;;;;;9.46;50.52;98075.72;6159024;28;125984;-59
2021/01/07 06:39:10;;;;;;;;;69.00;53.00;;;;;9.17;50.35;98033.63;6157768;28;126460;-59
2021/01/07 06:42:18;;;;;;;;;69.60;53.00;;;;;9.42;50.51;98079.94;6141958;28;126300;-59
2021/01/07 06:45:22;;;;;;;;;67.80;51.80;;;;;9.46;50.36;98089.19;6160266;28;127043;-59
2021/01/07 06:48:34;;;;;;;;;68.00;51.75;;;;;9.54;50.30;98083.44;6171627;28;127067;-59
2021/01/07 06:51:35;;;;;;;;;67.00;51.00;;;;;9.23;50.27;98048.81;6157455;28;125288;-59
2021/01/07 06:54:40;;;;;;;;;65.75;50.50;;;;;9.48;50.32;98095.13;6158059;28;125395;-59
2021/01/07 06:57:43;;;;;;;;;67.00;51.00;;;;;9.52;50.20;98098.19;6152003;28;124806;-59
2021/01/07 07:00:46;;;;;;;;;63.00;49.00;;;;;9.58;49.97;98100.75;6147120;28;126931;-59
2021/01/07 07:03:49;;;;;;;;;63.60;48.40;;;;;9.55;49.80;98092.31;6159445;28;127036;-59
2021/01/07 07:06:57;;;;;;;;;62.00;48.00;;;;;9.69;49.76;98119.81;6158425;28;127786;-59
2021/01/07 07:10:17;;;;;;;;;57.00;46.20;;;;;9.65;49.46;98116.78;6158144;28;126966;-60
2021/01/07 07:13:28;;;;;;;;;60.75;45.25;;;;;9.67;49.56;98125.44;6157837;28;126114;-59
2021/01/07 07:16:35;;;;;;;;;57.00;45.00;;;;;9.72;49.63;98125.56;6169796;28;124730;-59
2021/01/07 07:19:37;;;;;;;;;57.00;45.00;;;;;9.66;49.41;98133.75;6158085;28;124411;-59
2021/01/07 07:22:42;;;;;;;;;54.40;43.00;;;;;9.58;49.25;98140.28;6150307;28;124875;-59
2021/01/07 07:25:49;;;;;;;;;52.50;40.00;;;;;9.49;49.54;98136.31;6149146;28;124621;-59
2021/01/07 07:28:52;;;;;;;;;49.80;40.40;;;;;9.47;49.71;98133.88;6154383;28;124741;-59
2021/01/07 07:31:54;;;;;;;;;50.25;40.00;;;;;9.46;49.86;98142.97;6160615;28;124873;-60
2021/01/07 07:34:55;;;;;;;;;51.50;42.00;;;;;9.45;49.64;98135.97;6161194;28;125258;-59
2021/01/07 07:37:58;;;;;;;;;55.00;43.00;;;;;9.49;49.81;98142.50;6159760;28;124955;-59
2021/01/07 07:41:03;;;;;;;;;49.50;40.50;;;;;9.51;49.61;98156.56;6152987;28;125341;-59
2021/01/07 07:44:24;;;;;;;;;49.00;40.00;;;;;9.53;49.54;98162.50;6129483;28;124928;-59
2021/01/07 07:48:02;;;;;;;;;46.25;36.25;;;;;8.58;49.62;98035.41;6106149;28;123758;-59
2021/01/07 07:51:12;;;;;;;;;45.40;35.80;;;;;9.31;49.88;98169.50;6118211;28;125621;-59
2021/01/07 07:54:13;;;;;;;;;45.00;34.60;;;;;9.34;49.76;98165.53;6103853;28;124853;-59
2021/01/07 07:57:15;;;;;;;;;39.80;32.80;;;;;9.33;49.87;98175.50;6095287;28;128300;-59
2021/01/07 08:00:18;;;;;;;;;35.00;31.00;;;;;9.14;50.08;98177.41;6123776;28;127411;-59
2021/01/07 08:03:24;;;;;;;;;38.00;33.00;;;;;9.07;50.39;98175.88;6125331;28;127571;-59
2021/01/07 08:06:25;;;;;;;;;36.00;31.20;;;;;9.01;50.61;98185.69;6110433;28;125996;-59
2021/01/07 08:09:26;;;;;;;;;35.00;32.00;;;;;9.13;50.10;98183.03;6126478;28;125458;-59
2021/01/07 08:12:28;;;;;;;;;37.25;32.00;;;;;9.21;50.00;98198.00;6103125;28;125976;-59
2021/01/07 08:15:31;;;;;;;;;31.40;27.60;;;;;9.17;49.63;98191.44;6121420;28;128680;-59
2021/01/07 08:18:33;;;;;;;;;29.60;27.20;;;;;9.17;49.85;98194.13;6127898;28;127333;-59
2021/01/07 08:21:42;;;;;;;;;30.00;26.00;;;;;9.20;49.84;98201.75;6160671;28;126268;-60
2021/01/07 08:24:44;;;;;;;;;33.75;29.00;;;;;9.18;49.65;98199.31;6149427;28;127353;-59
2021/01/07 08:27:46;;;;;;;;;28.00;27.60;;;;;9.27;49.43;98197.09;6161108;28;125078;-59
2021/01/07 08:30:54;;;;;;;;;30.60;28.00;;;;;9.04;49.30;98173.66;6160733;28;125348;-58
2021/01/07 08:33:57;;;;;;;;;28.40;25.40;;;;;8.98;49.25;98143.13;6161091;28;126386;-60
2021/01/07 08:37:13;;;;;;;;;26.75;23.75;;;;;9.38;48.99;98207.88;6160037;28;126434;-60
2021/01/07 08:40:15;;;;;;;;;31.50;26.00;;;;;9.52;48.59;98206.63;6146170;28;126618;-60
2021/01/07 08:43:18;;;;;;;;;27.00;25.00;;;;;9.43;48.23;98201.81;6155360;28;125762;-60
2021/01/07 08:46:22;;;;;;;;;30.25;27.75;;;;;9.50;48.22;98219.50;6160638;28;124356;-60
2021/01/07 08:49:24;;;;;;;;;27.00;24.60;;;;;9.48;48.24;98228.84;6160742;28;126425;-60
2021/01/07 08:52:25;;;;;;;;;33.00;29.00;;;;;9.42;48.68;98230.59;6160661;28;126900;-59
2021/01/07 08:55:49;;;;;;;;;28.25;26.00;;;;;9.45;48.50;98227.44;6160465;28;125552;-58
2021/01/07 08:58:51;;;;;;;;;28.50;26.00;;;;;9.45;48.37;98222.06;6154361;28;124831;-59
2021/01/07 09:01:56;;;;;;;;;28.33;25.00;;;;;9.46;48.19;98234.47;6152502;28;126546;-60
2021/01/07 09:05:03;;;;;;;;;28.20;24.00;;;;;9.51;48.08;98233.75;6160270;28;126274;-60
2021/01/07 09:08:09;;;;;;;;;28.50;27.00;;;;;9.46;48.22;98223.69;6143904;28;124751;-60
2021/01/07 09:11:11;;;;;;;;;33.00;26.40;;;;;9.50;48.33;98232.13;6157009;28;127419;-60
2021/01/07 09:14:12;;;;;;;;;29.00;26.00;;;;;9.52;48.45;98236.22;6169708;28;125268;-59
2021/01/07 09:17:15;;;;;;;;;27.00;25.40;;;;;9.48;48.65;98245.00;6166665;28;125050;-59
2021/01/07 09:20:18;;;;;;;;;33.00;29.75;;;;;9.41;48.88;98230.81;6159993;28;125667;-59
2021/01/07 09:23:19;;;;;;;;;28.00;24.60;;;;;9.48;48.84;98236.94;6152211;28;125145;-59
2021/01/07 09:26:30;;;;;;;;;26.00;23.00;;;;;9.48;48.21;98239.63;6159940;28;126554;-59
2021/01/07 09:29:31;;;;;;;;;27.40;23.40;;;;;9.61;47.81;98235.88;6159974;28;124744;-60
2021/01/07 09:32:33;;;;;;;;;20.60;19.00;;;;;9.53;48.09;98242.41;6159335;28;125286;-60
2021/01/07 09:35:35;;;;;;;;;23.40;21.00;;;;;9.44;48.14;98238.41;6160264;28;126654;-59
2021/01/07 09:38:36;;;;;;;;;18.60;17.00;;;;;9.47;47.93;98233.41;6160031;28;126282;-59
2021/01/07 09:41:38;;;;;;;;;21.00;18.00;;;;;9.50;47.87;98224.88;6159475;28;127316;-59
2021/01/07 09:44:40;;;;;;;;;18.00;17.00;;;;;9.62;47.56;98232.16;6159437;28;125275;-59
2021/01/07 09:47:42;;;;;;;;;20.00;17.50;;;;;9.70;47.44;98232.63;6145041;28;126803;-59
2021/01/07 09:50:43;;;;;;;;;20.00;18.00;;;;;9.91;46.81;98236.63;6166387;28;125161;-59
2021/01/07 09:53:44;;;;;;;;;21.60;17.00;;;;;10.24;46.40;98236.91;6158448;28;126770;-59
2021/01/07 09:56:49;;;;;;;;;18.00;16.50;;;;;10.40;45.95;98230.81;6159415;28;126333;-59
2021/01/07 09:59:51;;;;;;;;;18.00;16.00;;;;;10.52;45.60;98238.03;6159997;28;126123;-59
2021/01/07 10:02:52;;;;;;;;;16.60;15.60;;;;;10.52;44.65;98243.41;6158983;28;124686;-59
2021/01/07 10:05:53;;;;;;;;;17.00;15.75;;;;;10.59;44.14;98239.56;6159869;28;126967;-60
2021/01/07 10:08:55;;;;;;;;;18.00;16.00;;;;;10.50;44.10;98242.84;6148662;28;125050;-59
2021/01/07 10:11:58;;;;;;;;;17.00;15.00;;;;;10.35;44.50;98241.47;6159068;28;126915;-59
2021/01/07 10:14:59;;;;;;;;;16.60;15.60;;;;;10.26;44.83;98244.75;6158412;28;127067;-59
2021/01/07 10:18:07;;;;;;;;;18.75;16.00;;;;;10.28;44.95;98231.84;6139022;28;127254;-59
2021/01/07 10:21:15;;;;;;;;;22.60;20.60;;;;;10.19;45.24;98235.97;6151018;28;125705;-59
2021/01/07 10:24:16;;;;;;;;;25.00;24.00;;;;;10.13;45.24;98231.47;6148428;28;127220;-60
2021/01/07 10:27:30;;;;;;;;;27.50;25.50;;;;;10.00;45.90;98240.63;6147968;28;126241;-59
2021/01/07 10:30:32;;;;;;;;;31.60;27.60;;;;;9.91;46.02;98248.22;6157738;28;125386;-58
2021/01/07 10:33:33;;;;;;;;;33.00;27.60;;;;;9.73;46.19;98240.22;6158012;28;126065;-59
2021/01/07 10:36:35;;;;;;;;;31.25;26.00;;;;;9.77;46.61;98243.28;6157920;28;125389;-60
2021/01/07 10:39:39;;;;;;;;;31.60;28.00;;;;;9.73;46.55;98240.22;6157288;28;126958;-59
2021/01/07 10:42:42;;;;;;;;;30.80;27.40;;;;;9.73;46.37;98250.16;6156631;28;125533;-60
2021/01/07 10:45:43;;;;;;;;;30.80;27.00;;;;;9.73;46.70;98242.09;6157885;28;127061;-59
2021/01/07 10:48:49;;;;;;;;;32.00;29.40;;;;;9.74;46.62;98249.94;6158091;28;126506;-59
2021/01/07 10:52:10;;;;;;;;;28.00;26.00;;;;;9.86;46.41;98240.03;6157543;28;124731;-59
2021/01/07 10:55:24;;;;;;;;;29.00;26.80;;;;;9.90;46.31;98245.75;6157379;28;126511;-59
2021/01/07 10:58:52;;;;;;;;;30.50;27.00;;;;;9.91;46.36;98242.03;6157115;28;126388;-59
2021/01/07 11:02:02;;;;;;;;;35.33;29.00;;;;;9.92;45.74;98247.16;6157201;28;124772;-59
2021/01/07 11:05:13;;;;;;;;;27.00;24.00;;;;;9.77;45.45;98225.28;6157774;28;124938;-59
2021/01/07 11:08:30;;;;;;;;;30.00;26.40;;;;;9.39;45.46;98176.41;6155746;28;126484;-59
2021/01/07 11:11:39;;;;;;;;;28.40;25.00;;;;;9.88;45.63;98242.47;6157997;28;127528;-59
2021/01/07 11:15:06;;;;;;;;;22.20;20.20;;;;;9.80;44.50;98238.25;6156852;28;125997;-59
2021/01/07 11:18:12;;;;;;;;;25.00;22.40;;;;;9.92;44.59;98233.69;6157666;28;126250;-60
2021/01/07 11:21:20;;;;;;;;;24.80;22.80;;;;;10.02;44.89;98235.00;6156173;28;124872;-60
2021/01/07 11:24:23;;;;;;;;;30.20;24.60;;;;;10.14;45.24;98230.44;6145587;28;125279;-60
2021/01/07 11:27:25;;;;;;;;;25.00;22.60;;;;;10.42;45.38;98234.06;6144512;28;124060;-60
2021/01/07 11:30:27;;;;;;;;;23.75;23.00;;;;;10.70;44.73;98227.91;6157035;28;126558;-60
2021/01/07 11:33:33;;;;;;;;;29.40;25.00;;;;;11.02;44.23;98227.47;6155850;28;125121;-60
2021/01/07 11:36:50;;;;;;;;;27.00;25.00;;;;;10.94;44.10;98234.06;6157369;28;125942;-60
2021/01/07 11:39:58;;;;;;;;;25.50;22.50;;;;;10.77;44.08;98241.25;6153842;28;126545;-61
2021/01/07 11:43:14;;;;;;;;;25.75;24.50;;;;;10.77;43.99;98241.25;6157155;28;126152;-59
2021/01/07 11:46:20;;;;;;;;;28.40;25.40;;;;;10.60;43.57;98243.06;6146573;28;126855;-59
2021/01/07 11:49:23;;;;;;;;;21.40;18.60;;;;;10.45;43.09;98246.25;6157777;28;124976;-59
2021/01/07 11:52:26;;;;;;;;;22.80;21.20;;;;;10.33;43.37;98235.47;6157719;28;126761;-60
2021/01/07 11:55:28;;;;;;;;;17.00;16.00;;;;;10.12;43.02;98222.56;6157351;28;126328;-60
2021/01/07 11:58:30;;;;;;;;;21.00;19.40;;;;;10.22;43.38;98238.19;6145560;28;125354;-60
2021/01/07 12:01:32;;;;;;;;;22.00;20.00;;;;;10.15;43.94;98240.97;6148317;28;126416;-59
2021/01/07 12:04:38;;;;;;;;;25.60;19.80;;;;;9.75;43.84;98210.41;6144766;28;126102;-59
2021/01/07 12:07:54;;;;;;;;;18.50;16.00;;;;;10.05;43.51;98248.81;6155811;28;126663;-60
2021/01/07 12:10:58;;;;;;;;;20.00;17.40;;;;;9.99;43.47;98252.44;6138747;28;125305;-59
2021/01/07 12:14:11;;;;;;;;;21.00;16.00;;;;;9.94;43.48;98244.25;6154999;28;126180;-59
2021/01/07 12:17:13;;;;;;;;;20.00;20.00;;;;;9.87;43.82;98257.81;6160581;28;124718;-59
2021/01/07 12:20:15;;;;;;;;;18.00;17.00;;;;;9.81;43.83;98250.69;6161736;28;125344;-60
2021/01/07 12:23:19;;;;;;;;;18.40;16.60;;;;;9.81;44.26;98248.00;6161419;28;125236;-59
2021/01/07 12:26:21;;;;;;;;;20.50;16.75;;;;;9.50;44.45;98246.41;6161011;28;126404;-59
2021/01/07 12:29:24;;;;;;;;;17.60;16.60;;;;;9.55;44.51;98251.91;6161271;28;124899;-59
2021/01/07 12:32:30;;;;;;;;;17.60;15.60;;;;;9.58;44.62;98259.50;6160311;28;127025;-60
2021/01/07 12:35:35;;;;;;;;;18.25;17.00;;;;;9.66;44.45;98261.06;6160431;28;127038;-59
2021/01/07 12:39:04;;;;;;;;;18.60;16.20;;;;;9.64;44.55;98256.94;6159494;28;126070;-59
2021/01/07 12:42:11;;;;;;;;;21.25;18.00;;;;;9.58;44.98;98254.13;6145390;28;126041;-60
2021/01/07 12:45:16;;;;;;;;;21.00;18.00;;;;;9.63;45.14;98253.44;6161140;28;124998;-59
2021/01/07 12:48:21;;;;;;;;;21.60;19.00;;;;;9.55;45.67;98265.38;6160605;28;126578;-59
2021/01/07 12:51:32;;;;;;;;;24.67;22.00;;;;;9.56;45.78;98258.94;6160380;28;124511;-59
2021/01/07 12:54:37;;;;;;;;;27.50;24.00;;;;;9.66;45.56;98258.38;6159383;28;126670;-60
2021/01/07 12:57:47;;;;;;;;;25.75;22.75;;;;;9.57;45.25;98260.59;6159232;28;126212;-60
2021/01/07 13:01:02;;;;;;;;;26.00;23.60;;;;;9.61;44.99;98266.31;6147726;28;125971;-59
2021/01/07 13:04:20;;;;;;;;;26.00;25.40;;;;;9.47;45.43;98271.09;6159625;28;127212;-60
2021/01/07 13:07:28;;;;;;;;;33.00;29.00;;;;;9.62;45.53;98269.81;6153610;28;125785;-60
2021/01/07 13:10:36;;;;;;;;;29.80;26.00;;;;;9.56;45.27;98285.84;6158042;28;123924;-59
2021/01/07 13:13:45;;;;;;;;;28.50;26.50;;;;;9.58;45.38;98266.75;6144245;28;127489;-59
2021/01/07 13:16:46;;;;;;;;;30.40;27.00;;;;;9.62;45.47;98278.72;6148458;28;126595;-59
2021/01/07 13:19:49;;;;;;;;;27.60;25.80;;;;;9.61;45.44;98270.88;6158361;28;126457;-59
2021/01/07 13:22:51;;;;;;;;;31.40;27.20;;;;;9.42;45.51;98265.56;6131232;28;127482;-59
2021/01/07 13:25:54;;;;;;;;;28.00;24.00;;;;;9.54;45.72;98279.84;6159238;28;127317;-59
2021/01/07 13:28:56;;;;;;;;;30.60;27.00;;;;;9.35;45.64;98274.75;6158616;28;126116;-59
2021/01/07 13:31:58;;;;;;;;;31.00;27.50;;;;;9.48;45.73;98279.97;6158541;28;125066;-59
2021/01/07 13:36:07;;;;;;;;;29.80;27.40;;;;;9.46;45.91;98282.88;6145350;28;124843;-59
2021/01/07 13:39:09;;;;;;;;;29.60;27.00;;;;;9.29;45.91;98249.59;6160224;28;123492;-60
2021/01/07 13:42:13;;;;;;;;;29.00;25.00;;;;;9.56;45.63;98287.72;6159879;28;125721;-60
2021/01/07 13:45:17;;;;;;;;;28.20;24.80;;;;;9.56;45.86;98291.22;6158945;28;126012;-59
2021/01/07 13:48:19;;;;;;;;;30.00;27.20;;;;;9.60;45.77;98294.28;6159196;28;126408;-59
2021/01/07 13:51:34;;;;;;;;;31.00;27.60;;;;;9.50;46.01;98300.22;6144131;28;125366;-59
2021/01/07 13:55:15;;;;;;;;;30.60;27.00;;;;;9.32;46.26;98291.38;6156004;28;96996;-59
2021/01/07 13:58:19;;;;;;;;;29.00;26.50;;;;;9.27;46.41;98300.13;6159874;28;125100;-60
2021/01/07 14:01:24;;;;;;;;;29.60;27.60;;;;;9.40;46.42;98320.63;6159827;28;126492;-59
2021/01/07 14:04:25;;;;;;;;;28.00;26.00;;;;;9.40;46.47;98318.78;6160091;28;126425;-60
2021/01/07 14:07:33;;;;;;;;;29.40;27.00;;;;;9.39;46.35;98314.44;6160041;28;126918;-59